createdAt,value
2017-03-03T00:00:56.429Z,0
2017-03-03T00:01:57.670Z,0
2017-03-03T00:02:58.904Z,0
2017-03-03T00:04:00.163Z,0
2017-03-03T00:05:01.439Z,0
2017-03-03T00:06:02.672Z,0
2017-03-03T00:07:03.919Z,0
2017-03-03T00:08:05.162Z,0
2017-03-03T00:09:06.394Z,0
2017-03-03T00:10:07.665Z,0
2017-03-03T00:11:08.933Z,0
2017-03-03T00:12:10.237Z,0
2017-03-03T00:13:11.526Z,0
2017-03-03T00:14:12.771Z,0
2017-03-03T00:15:14.019Z,0
2017-03-03T00:16:15.365Z,0
2017-03-03T00:17:16.624Z,0
2017-03-03T00:18:17.877Z,0
2017-03-03T00:19:19.143Z,0
2017-03-03T00:20:20.361Z,0
2017-03-03T00:21:21.628Z,0
2017-03-03T00:22:22.861Z,0
2017-03-03T00:23:24.119Z,0
2017-03-03T00:24:25.455Z,0
2017-03-03T00:25:26.681Z,0
2017-03-03T00:26:27.935Z,0
2017-03-03T00:27:29.168Z,0
2017-03-03T00:28:30.417Z,0
2017-03-03T00:29:31.664Z,0
2017-03-03T00:30:32.935Z,0
2017-03-03T00:31:34.225Z,0
2017-03-03T00:32:35.423Z,0
2017-03-03T00:33:36.657Z,0
2017-03-03T00:34:37.901Z,0
2017-03-03T00:35:39.239Z,0
2017-03-03T00:36:40.463Z,0
2017-03-03T00:37:41.762Z,0
2017-03-03T00:38:42.989Z,0
2017-03-03T00:39:44.221Z,0
2017-03-03T00:40:45.616Z,0
2017-03-03T00:41:46.812Z,0
2017-03-03T00:42:48.026Z,0
2017-03-03T00:43:49.267Z,0
2017-03-03T00:44:50.521Z,0
2017-03-03T00:45:51.753Z,0
2017-03-03T00:46:53.001Z,0
2017-03-03T00:47:54.243Z,0
2017-03-03T00:48:55.583Z,0
2017-03-03T00:49:56.793Z,0
2017-03-03T00:50:58.125Z,0
2017-03-03T00:51:59.371Z,0
2017-03-03T00:53:00.615Z,0
2017-03-03T00:54:01.931Z,0
2017-03-03T00:55:03.148Z,0
2017-03-03T00:56:04.394Z,0
2017-03-03T00:57:05.643Z,0
2017-03-03T00:58:06.891Z,0
2017-03-03T00:59:08.147Z,0
2017-03-03T01:00:09.474Z,0
2017-03-03T01:01:10.747Z,0
2017-03-03T01:02:12.047Z,0
2017-03-03T01:03:13.314Z,0
2017-03-03T01:04:14.557Z,0
2017-03-03T01:05:15.816Z,0
2017-03-03T01:06:17.059Z,0
2017-03-03T01:07:18.372Z,0
2017-03-03T01:08:19.723Z,0
2017-03-03T01:09:20.975Z,0
2017-03-03T01:10:22.216Z,0
2017-03-03T01:11:23.428Z,0
2017-03-03T01:12:24.671Z,0
2017-03-03T01:13:25.908Z,0
2017-03-03T01:14:27.152Z,0
2017-03-03T01:15:28.419Z,0
2017-03-03T01:16:29.796Z,0
2017-03-03T01:17:31.039Z,0
2017-03-03T01:18:32.263Z,0
2017-03-03T01:19:33.498Z,0
2017-03-03T01:20:34.833Z,0
2017-03-03T01:21:35.991Z,0
2017-03-03T01:22:37.201Z,0
2017-03-03T01:23:38.442Z,0
2017-03-03T01:24:39.688Z,0
2017-03-03T01:25:40.908Z,0
2017-03-03T01:26:42.159Z,0
2017-03-03T01:27:43.433Z,0
2017-03-03T01:28:44.714Z,0
2017-03-03T01:29:45.926Z,0
2017-03-03T01:30:47.154Z,0
2017-03-03T01:31:48.379Z,0
2017-03-03T01:32:49.631Z,0
2017-03-03T01:33:50.897Z,0
2017-03-03T01:34:52.150Z,0
2017-03-03T01:35:53.381Z,0
2017-03-03T01:36:54.620Z,0
2017-03-03T01:37:55.871Z,0
2017-03-03T01:38:57.128Z,0
2017-03-03T01:39:58.367Z,0
2017-03-03T01:40:59.626Z,0
2017-03-03T01:42:00.863Z,0
2017-03-03T01:43:02.088Z,0
2017-03-03T01:44:03.317Z,0
2017-03-03T01:45:04.562Z,0
2017-03-03T01:46:05.797Z,0
2017-03-03T01:47:07.032Z,0
2017-03-03T01:48:08.305Z,0
2017-03-03T01:49:09.552Z,0
2017-03-03T01:50:10.777Z,0
2017-03-03T01:51:12.091Z,0
2017-03-03T01:52:13.308Z,0
2017-03-03T01:53:14.540Z,0
2017-03-03T01:54:15.779Z,0
2017-03-03T01:55:17.027Z,0
2017-03-03T01:56:18.275Z,0
2017-03-03T01:57:19.526Z,0
2017-03-03T01:58:20.756Z,0
2017-03-03T01:59:21.991Z,0
2017-03-03T02:00:23.234Z,0
2017-03-03T02:01:24.470Z,0
2017-03-03T02:02:25.774Z,0
2017-03-03T02:03:27.028Z,0
2017-03-03T02:04:28.267Z,0
2017-03-03T02:05:29.600Z,0
2017-03-03T02:06:30.836Z,0
2017-03-03T02:07:32.085Z,0
2017-03-03T02:08:33.434Z,0
2017-03-03T02:09:34.664Z,0
2017-03-03T02:10:36.002Z,0
2017-03-03T02:11:37.305Z,0
2017-03-03T02:12:38.564Z,0
2017-03-03T02:13:39.811Z,0
2017-03-03T02:14:41.060Z,0
2017-03-03T02:15:42.309Z,0
2017-03-03T02:16:43.550Z,0
2017-03-03T02:17:44.782Z,0
2017-03-03T02:18:46.026Z,0
2017-03-03T02:19:47.270Z,0
2017-03-03T02:20:48.498Z,0
2017-03-03T02:21:49.842Z,0
2017-03-03T02:22:51.072Z,0
2017-03-03T02:23:52.306Z,0
2017-03-03T02:24:53.532Z,0
2017-03-03T02:25:54.761Z,0
2017-03-03T02:26:56.029Z,0
2017-03-03T02:27:57.309Z,0
2017-03-03T02:28:58.550Z,0
2017-03-03T02:29:59.817Z,0
2017-03-03T02:31:01.016Z,0
2017-03-03T02:32:02.249Z,0
2017-03-03T02:33:03.564Z,0
2017-03-03T02:34:04.801Z,0
2017-03-03T02:35:06.034Z,0
2017-03-03T02:36:07.275Z,0
2017-03-03T02:37:08.516Z,0
2017-03-03T02:38:09.761Z,0
2017-03-03T02:39:11.011Z,0
2017-03-03T02:40:12.249Z,0
2017-03-03T02:41:13.519Z,0
2017-03-03T02:42:14.746Z,0
2017-03-03T02:43:15.977Z,0
2017-03-03T02:44:17.219Z,0
2017-03-03T02:45:18.459Z,0
2017-03-03T02:46:19.722Z,0
2017-03-03T02:47:20.954Z,0
2017-03-03T02:48:22.272Z,0
2017-03-03T02:49:23.515Z,0
2017-03-03T02:50:24.748Z,0
2017-03-03T02:51:25.979Z,0
2017-03-03T02:52:27.242Z,0
2017-03-03T02:53:28.547Z,0
2017-03-03T02:54:29.766Z,0
2017-03-03T02:55:30.997Z,0
2017-03-03T02:56:32.226Z,0
2017-03-03T02:57:33.527Z,0
2017-03-03T02:58:34.764Z,0
2017-03-03T02:59:36.012Z,0
2017-03-03T03:00:37.330Z,0
2017-03-03T03:01:38.582Z,0
2017-03-03T03:02:39.883Z,0
2017-03-03T03:03:41.136Z,0
2017-03-03T03:04:42.416Z,0
2017-03-03T03:05:43.661Z,0
2017-03-03T03:06:44.920Z,0
2017-03-03T03:07:46.164Z,0
2017-03-03T03:08:47.388Z,0
2017-03-03T03:09:48.625Z,0
2017-03-03T03:10:49.996Z,0
2017-03-03T03:11:51.304Z,0
2017-03-03T03:12:52.542Z,0
2017-03-03T03:13:53.860Z,0
2017-03-03T03:14:55.058Z,0
2017-03-03T03:15:56.292Z,0
2017-03-03T03:16:57.585Z,0
2017-03-03T03:17:58.840Z,0
2017-03-03T03:19:00.076Z,0
2017-03-03T03:20:01.360Z,0
2017-03-03T03:21:02.589Z,0
2017-03-03T03:22:03.828Z,0
2017-03-03T03:23:05.061Z,0
2017-03-03T03:24:06.302Z,0
2017-03-03T03:25:07.543Z,0
2017-03-03T03:26:08.783Z,0
2017-03-03T03:27:10.019Z,0
2017-03-03T03:28:11.260Z,0
2017-03-03T03:29:12.489Z,0
2017-03-03T03:30:13.753Z,0
2017-03-03T03:31:15.094Z,0
2017-03-03T03:32:16.357Z,0
2017-03-03T03:33:17.614Z,0
2017-03-03T03:34:18.839Z,0
2017-03-03T03:35:20.057Z,0
2017-03-03T03:36:21.294Z,0
2017-03-03T03:37:22.535Z,0
2017-03-03T03:38:23.935Z,0
2017-03-03T03:39:25.151Z,0
2017-03-03T03:40:26.378Z,0
2017-03-03T03:41:27.611Z,0
2017-03-03T03:42:28.850Z,0
2017-03-03T03:43:30.134Z,0
2017-03-03T03:44:31.461Z,0
2017-03-03T03:45:32.772Z,0
2017-03-03T03:46:33.985Z,0
2017-03-03T03:47:35.228Z,0
2017-03-03T03:48:36.463Z,0
2017-03-03T03:49:37.752Z,0
2017-03-03T03:50:38.999Z,0
2017-03-03T03:51:40.278Z,0
2017-03-03T03:52:41.473Z,0
2017-03-03T03:53:42.714Z,0
2017-03-03T03:54:43.931Z,0
2017-03-03T03:55:45.198Z,0
2017-03-03T03:56:46.426Z,0
2017-03-03T03:57:47.674Z,0
2017-03-03T03:58:48.895Z,0
2017-03-03T03:59:50.144Z,0
2017-03-03T04:00:51.371Z,0
2017-03-03T04:01:52.592Z,0
2017-03-03T04:02:53.825Z,0
2017-03-03T04:03:55.069Z,0
2017-03-03T04:04:56.310Z,0
2017-03-03T04:05:57.565Z,0
2017-03-03T04:06:58.791Z,0
2017-03-03T04:08:00.057Z,0
2017-03-03T04:09:01.286Z,0
2017-03-03T04:10:02.526Z,0
2017-03-03T04:11:03.743Z,0
2017-03-03T04:12:04.978Z,0
2017-03-03T04:13:06.225Z,0
2017-03-03T04:14:07.463Z,0
2017-03-03T04:15:08.714Z,0
2017-03-03T04:16:09.950Z,0
2017-03-03T04:17:11.195Z,0
2017-03-03T04:18:12.487Z,0
2017-03-03T04:19:13.918Z,0
2017-03-03T04:20:15.152Z,0
2017-03-03T04:21:16.388Z,0
2017-03-03T04:22:17.632Z,0
2017-03-03T04:23:18.906Z,0
2017-03-03T04:24:20.287Z,0
2017-03-03T04:25:21.524Z,0
2017-03-03T04:26:22.753Z,0
2017-03-03T04:27:24.040Z,0
2017-03-03T04:28:25.401Z,0
2017-03-03T04:29:26.579Z,0
2017-03-03T04:30:27.812Z,0
2017-03-03T04:31:29.038Z,0
2017-03-03T04:32:30.274Z,0
2017-03-03T04:33:31.517Z,0
2017-03-03T04:34:32.756Z,0
2017-03-03T04:35:34.034Z,0
2017-03-03T04:36:35.323Z,0
2017-03-03T04:37:36.702Z,0
2017-03-03T04:38:37.941Z,0
2017-03-03T04:39:39.166Z,0
2017-03-03T04:40:40.395Z,0
2017-03-03T04:41:41.655Z,0
2017-03-03T04:42:42.884Z,0
2017-03-03T04:43:44.135Z,0
2017-03-03T04:44:45.345Z,0
2017-03-03T04:45:46.571Z,0
2017-03-03T04:46:47.817Z,0
2017-03-03T04:47:49.045Z,0
2017-03-03T04:48:50.296Z,0
2017-03-03T04:49:51.607Z,0
2017-03-03T04:50:52.833Z,0
2017-03-03T04:51:54.064Z,0
2017-03-03T04:52:55.293Z,0
2017-03-03T04:53:56.525Z,0
2017-03-03T04:54:57.758Z,0
2017-03-03T04:55:59.091Z,0
2017-03-03T04:57:00.437Z,0
2017-03-03T04:58:01.672Z,0
2017-03-03T04:59:02.909Z,0
2017-03-03T05:00:04.254Z,0
2017-03-03T05:01:05.487Z,0
2017-03-03T05:02:06.718Z,0
2017-03-03T05:03:07.945Z,0
2017-03-03T05:04:09.164Z,0
2017-03-03T05:05:10.423Z,0
2017-03-03T05:06:11.661Z,0
2017-03-03T05:07:12.874Z,0
2017-03-03T05:08:14.250Z,0
2017-03-03T05:09:15.530Z,0
2017-03-03T05:10:16.757Z,0
2017-03-03T05:11:17.998Z,0
2017-03-03T05:12:19.454Z,0
2017-03-03T05:13:20.698Z,0
2017-03-03T05:14:21.953Z,0
2017-03-03T05:15:23.167Z,0
2017-03-03T05:16:24.416Z,0
2017-03-03T05:17:25.660Z,0
2017-03-03T05:18:26.879Z,0
2017-03-03T05:19:28.162Z,0
2017-03-03T05:20:29.413Z,0
2017-03-03T05:21:30.649Z,0
2017-03-03T05:22:31.879Z,0
2017-03-03T05:23:33.120Z,0
2017-03-03T05:24:34.357Z,0
2017-03-03T05:25:35.697Z,0
2017-03-03T05:26:36.925Z,0
2017-03-03T05:27:38.221Z,0
2017-03-03T05:28:39.465Z,0
2017-03-03T05:29:40.695Z,0
2017-03-03T05:30:41.937Z,0
2017-03-03T05:31:43.162Z,0
2017-03-03T05:32:44.399Z,0
2017-03-03T05:33:45.742Z,0
2017-03-03T05:34:46.960Z,0
2017-03-03T05:35:48.193Z,0
2017-03-03T05:36:49.437Z,0
2017-03-03T05:37:50.706Z,0
2017-03-03T05:38:52.095Z,0
2017-03-03T05:39:53.355Z,0
2017-03-03T05:40:54.938Z,0
2017-03-03T05:41:56.174Z,0
2017-03-03T05:42:57.401Z,0
2017-03-03T05:43:58.642Z,0
2017-03-03T05:44:59.889Z,0
2017-03-03T05:46:01.124Z,0
2017-03-03T05:47:02.361Z,0
2017-03-03T05:48:03.590Z,0
2017-03-03T05:49:04.827Z,0
2017-03-03T05:50:06.057Z,0
2017-03-03T05:51:07.287Z,0
2017-03-03T05:52:08.516Z,0
2017-03-03T05:53:09.763Z,0
2017-03-03T05:54:10.995Z,0
2017-03-03T05:55:12.282Z,0
2017-03-03T05:56:13.505Z,0
2017-03-03T05:57:14.737Z,0
2017-03-03T05:58:16.091Z,5
2017-03-03T05:59:17.341Z,5
2017-03-03T06:00:18.569Z,5
2017-03-03T06:01:19.840Z,5
2017-03-03T06:02:21.064Z,5
2017-03-03T06:03:22.277Z,5
2017-03-03T06:04:23.521Z,5
2017-03-03T06:05:24.778Z,5
2017-03-03T06:06:25.999Z,5
2017-03-03T06:07:27.227Z,5
2017-03-03T06:08:28.558Z,5
2017-03-03T06:09:29.903Z,5
2017-03-03T06:10:31.135Z,10
2017-03-03T06:11:32.483Z,10
2017-03-03T06:12:33.736Z,10
2017-03-03T06:13:34.962Z,10
2017-03-03T06:14:36.202Z,15
2017-03-03T06:15:37.460Z,15
2017-03-03T06:16:38.711Z,15
2017-03-03T06:17:39.966Z,15
2017-03-03T06:18:41.183Z,20
2017-03-03T06:19:42.414Z,20
2017-03-03T06:20:43.708Z,20
2017-03-03T06:21:44.963Z,25
2017-03-03T06:22:46.245Z,25
2017-03-03T06:23:47.560Z,30
2017-03-03T06:24:48.801Z,30
2017-03-03T06:25:50.068Z,30
2017-03-03T06:26:51.401Z,35
2017-03-03T06:27:52.646Z,35
2017-03-03T06:28:53.882Z,40
2017-03-03T06:29:55.109Z,40
2017-03-03T06:30:56.496Z,45
2017-03-03T06:31:57.826Z,45
2017-03-03T06:32:59.071Z,50
2017-03-03T06:34:00.298Z,55
2017-03-03T06:35:01.654Z,60
2017-03-03T06:36:02.806Z,60
2017-03-03T06:37:04.114Z,65
2017-03-03T06:38:05.379Z,70
2017-03-03T06:39:06.619Z,80
2017-03-03T06:40:07.856Z,90
2017-03-03T06:41:09.088Z,100
2017-03-03T06:42:10.329Z,100
2017-03-03T06:43:11.633Z,105
2017-03-03T06:44:13.057Z,110
2017-03-03T06:45:14.294Z,120
2017-03-03T06:46:15.529Z,125
2017-03-03T06:47:16.768Z,130
2017-03-03T06:48:17.992Z,125
2017-03-03T06:49:19.351Z,110
2017-03-03T06:50:20.623Z,115
2017-03-03T06:51:21.857Z,140
2017-03-03T06:52:23.091Z,160
2017-03-03T06:53:24.322Z,170
2017-03-03T06:54:25.558Z,175
2017-03-03T06:55:26.801Z,170
2017-03-03T06:56:28.042Z,180
2017-03-03T06:57:29.334Z,215
2017-03-03T06:58:30.534Z,240
2017-03-03T06:59:31.814Z,260
2017-03-03T07:00:33.032Z,280
2017-03-03T07:01:34.281Z,285
2017-03-03T07:02:35.534Z,305
2017-03-03T07:03:36.836Z,320
2017-03-03T07:04:38.078Z,320
2017-03-03T07:05:39.316Z,345
2017-03-03T07:06:40.568Z,350
2017-03-03T07:07:41.815Z,330
2017-03-03T07:08:43.304Z,385
2017-03-03T07:09:44.565Z,400
2017-03-03T07:10:45.874Z,420
2017-03-03T07:11:47.098Z,430
2017-03-03T07:12:48.372Z,435
2017-03-03T07:13:49.625Z,435
2017-03-03T07:14:50.880Z,435
2017-03-03T07:15:52.218Z,440
2017-03-03T07:16:53.458Z,345
2017-03-03T07:17:54.691Z,470
2017-03-03T07:18:55.930Z,475
2017-03-03T07:19:57.187Z,390
2017-03-03T07:20:58.440Z,350
2017-03-03T07:21:59.771Z,325
2017-03-03T07:23:00.994Z,440
2017-03-03T07:24:02.231Z,505
2017-03-03T07:25:03.470Z,530
2017-03-03T07:26:04.721Z,530
2017-03-03T07:27:05.994Z,535
2017-03-03T07:28:07.231Z,555
2017-03-03T07:29:08.469Z,560
2017-03-03T07:30:09.719Z,550
2017-03-03T07:31:10.957Z,530
2017-03-03T07:32:12.289Z,525
2017-03-03T07:33:13.657Z,520
2017-03-03T07:34:14.906Z,500
2017-03-03T07:35:16.155Z,475
2017-03-03T07:36:17.394Z,455
2017-03-03T07:37:18.641Z,445
2017-03-03T07:38:19.994Z,460
2017-03-03T07:39:21.274Z,515
2017-03-03T07:40:22.618Z,510
2017-03-03T07:41:23.883Z,510
2017-03-03T07:42:25.137Z,515
2017-03-03T07:43:26.375Z,545
2017-03-03T07:44:27.617Z,545
2017-03-03T07:45:28.860Z,555
2017-03-03T07:46:30.158Z,520
2017-03-03T07:47:31.395Z,520
2017-03-03T07:48:32.624Z,575
2017-03-03T07:49:33.923Z,630
2017-03-03T07:50:35.192Z,510
2017-03-03T07:51:36.433Z,465
2017-03-03T07:52:37.672Z,560
2017-03-03T07:53:38.925Z,675
2017-03-03T07:54:40.169Z,690
2017-03-03T07:55:41.440Z,560
2017-03-03T07:56:42.661Z,515
2017-03-03T07:57:43.917Z,580
2017-03-03T07:58:45.177Z,600
2017-03-03T07:59:46.452Z,505
2017-03-03T08:00:47.694Z,430
2017-03-03T08:01:48.970Z,440
2017-03-03T08:02:50.202Z,500
2017-03-03T08:03:51.455Z,545
2017-03-03T08:04:52.704Z,520
2017-03-03T08:05:53.975Z,580
2017-03-03T08:06:55.210Z,690
2017-03-03T08:07:56.456Z,685
2017-03-03T08:08:57.687Z,650
2017-03-03T08:09:58.941Z,650
2017-03-03T08:11:00.185Z,590
2017-03-03T08:12:01.597Z,540
2017-03-03T08:13:02.843Z,510
2017-03-03T08:14:04.099Z,560
2017-03-03T08:15:05.337Z,670
2017-03-03T08:16:06.593Z,675
2017-03-03T08:17:07.929Z,640
2017-03-03T08:18:09.174Z,645
2017-03-03T08:19:10.530Z,675
2017-03-03T08:20:11.777Z,720
2017-03-03T08:21:13.061Z,740
2017-03-03T08:22:14.501Z,745
2017-03-03T08:23:15.819Z,755
2017-03-03T08:24:17.056Z,725
2017-03-03T08:25:18.315Z,730
2017-03-03T08:26:19.574Z,750
2017-03-03T08:27:20.817Z,760
2017-03-03T08:28:22.072Z,785
2017-03-03T08:29:23.311Z,780
2017-03-03T08:30:24.641Z,780
2017-03-03T08:31:25.884Z,790
2017-03-03T08:32:27.119Z,760
2017-03-03T08:33:28.378Z,765
2017-03-03T08:34:29.621Z,735
2017-03-03T08:35:30.883Z,765
2017-03-03T08:36:32.165Z,805
2017-03-03T08:37:33.413Z,820
2017-03-03T08:38:34.656Z,870
2017-03-03T08:39:35.915Z,870
2017-03-03T08:40:37.166Z,925
2017-03-03T08:41:38.424Z,910
2017-03-03T08:42:39.682Z,885
2017-03-03T08:43:40.929Z,855
2017-03-03T08:44:42.173Z,790
2017-03-03T08:45:43.426Z,790
2017-03-03T08:46:44.648Z,785
2017-03-03T08:47:45.946Z,735
2017-03-03T08:48:47.207Z,740
2017-03-03T08:49:48.474Z,765
2017-03-03T08:50:49.764Z,755
2017-03-03T08:51:51.005Z,720
2017-03-03T08:52:52.297Z,765
2017-03-03T08:53:53.707Z,755
2017-03-03T08:54:55.007Z,815
2017-03-03T08:55:56.284Z,790
2017-03-03T08:56:57.509Z,820
2017-03-03T08:57:58.830Z,905
2017-03-03T08:59:00.095Z,955
2017-03-03T09:00:01.370Z,910
2017-03-03T09:01:02.739Z,890
2017-03-03T09:02:04.096Z,875
2017-03-03T09:03:05.336Z,930
2017-03-03T09:04:06.586Z,940
2017-03-03T09:05:07.885Z,930
2017-03-03T09:06:09.143Z,920
2017-03-03T09:07:10.418Z,940
2017-03-03T09:08:11.670Z,940
2017-03-03T09:09:12.917Z,1045
2017-03-03T09:10:14.182Z,1025
2017-03-03T09:11:15.540Z,1100
2017-03-03T09:12:16.852Z,1100
2017-03-03T09:13:18.128Z,940
2017-03-03T09:14:19.368Z,1145
2017-03-03T09:15:20.619Z,1155
2017-03-03T09:16:21.868Z,1200
2017-03-03T09:17:23.130Z,1255
2017-03-03T09:18:24.520Z,1295
2017-03-03T09:19:25.757Z,1300
2017-03-03T09:20:27.003Z,1420
2017-03-03T09:21:28.264Z,1435
2017-03-03T09:22:29.574Z,1415
2017-03-03T09:23:30.812Z,1235
2017-03-03T09:24:32.061Z,1150
2017-03-03T09:25:33.310Z,1065
2017-03-03T09:26:34.577Z,1135
2017-03-03T09:27:35.940Z,1135
2017-03-03T09:28:37.217Z,1015
2017-03-03T09:29:38.511Z,960
2017-03-03T09:30:39.855Z,1180
2017-03-03T09:31:41.113Z,1310
2017-03-03T09:32:42.408Z,1270
2017-03-03T09:33:43.791Z,1170
2017-03-03T09:34:44.958Z,1070
2017-03-03T09:35:46.309Z,950
2017-03-03T09:36:47.559Z,925
2017-03-03T09:37:48.804Z,1135
2017-03-03T09:38:50.067Z,1135
2017-03-03T09:39:51.319Z,1080
2017-03-03T09:40:52.605Z,995
2017-03-03T09:41:53.856Z,935
2017-03-03T09:42:55.187Z,880
2017-03-03T09:43:56.432Z,885
2017-03-03T09:44:57.720Z,805
2017-03-03T09:45:58.958Z,740
2017-03-03T09:47:00.226Z,785
2017-03-03T09:48:01.461Z,800
2017-03-03T09:49:02.767Z,810
2017-03-03T09:50:04.103Z,855
2017-03-03T09:51:05.347Z,755
2017-03-03T09:52:06.621Z,685
2017-03-03T09:53:07.879Z,665
2017-03-03T09:54:09.138Z,650
2017-03-03T09:55:10.456Z,655
2017-03-03T09:56:11.686Z,635
2017-03-03T09:57:12.927Z,610
2017-03-03T09:58:14.197Z,610
2017-03-03T09:59:15.438Z,575
2017-03-03T10:00:16.711Z,560
2017-03-03T10:01:18.029Z,560
2017-03-03T10:02:19.281Z,565
2017-03-03T10:03:20.536Z,575
2017-03-03T10:04:21.857Z,585
2017-03-03T10:05:23.024Z,575
2017-03-03T10:06:24.382Z,570
2017-03-03T10:07:25.681Z,585
2017-03-03T10:08:26.897Z,615
2017-03-03T10:09:28.253Z,645
2017-03-03T10:10:29.485Z,670
2017-03-03T10:11:30.748Z,685
2017-03-03T10:12:31.987Z,715
2017-03-03T10:13:33.276Z,730
2017-03-03T10:14:34.497Z,730
2017-03-03T10:15:35.754Z,770
2017-03-03T10:16:36.979Z,760
2017-03-03T10:17:38.248Z,820
2017-03-03T10:18:39.491Z,905
2017-03-03T10:19:40.736Z,945
2017-03-03T10:20:42.003Z,920
2017-03-03T10:21:43.246Z,955
2017-03-03T10:22:44.497Z,955
2017-03-03T10:23:45.869Z,955
2017-03-03T10:24:47.099Z,950
2017-03-03T10:25:48.357Z,925
2017-03-03T10:26:49.581Z,930
2017-03-03T10:27:50.828Z,900
2017-03-03T10:28:52.136Z,930
2017-03-03T10:29:53.309Z,980
2017-03-03T10:30:54.559Z,1005
2017-03-03T10:31:56.060Z,1010
2017-03-03T10:32:57.302Z,1010
2017-03-03T10:33:58.571Z,1030
2017-03-03T10:34:59.827Z,1120
2017-03-03T10:36:01.053Z,1115
2017-03-03T10:37:02.325Z,1115
2017-03-03T10:38:03.568Z,1165
2017-03-03T10:39:04.796Z,1245
2017-03-03T10:40:06.098Z,1195
2017-03-03T10:41:07.365Z,1390
2017-03-03T10:42:08.607Z,1455
2017-03-03T10:43:09.972Z,1460
2017-03-03T10:44:11.223Z,1475
2017-03-03T10:45:12.557Z,1610
2017-03-03T10:46:13.805Z,1395
2017-03-03T10:47:15.044Z,1505
2017-03-03T10:48:16.343Z,1525
2017-03-03T10:49:17.600Z,1430
2017-03-03T10:50:18.860Z,1460
2017-03-03T10:51:20.069Z,1370
2017-03-03T10:52:21.323Z,1360
2017-03-03T10:53:22.563Z,1315
2017-03-03T10:54:23.929Z,1370
2017-03-03T10:55:25.175Z,1620
2017-03-03T10:56:26.417Z,1600
2017-03-03T10:57:27.694Z,1505
2017-03-03T10:58:28.932Z,1295
2017-03-03T10:59:30.215Z,1080
2017-03-03T11:00:31.468Z,810
2017-03-03T11:01:32.791Z,700
2017-03-03T11:02:34.030Z,675
2017-03-03T11:03:35.337Z,665
2017-03-03T11:04:36.557Z,665
2017-03-03T11:05:37.819Z,660
2017-03-03T11:06:39.074Z,645
2017-03-03T11:07:40.357Z,635
2017-03-03T11:08:42.238Z,615
2017-03-03T11:09:43.487Z,605
2017-03-03T11:10:44.732Z,600
2017-03-03T11:11:46.011Z,595
2017-03-03T11:12:47.321Z,595
2017-03-03T11:13:48.511Z,585
2017-03-03T11:14:49.772Z,570
2017-03-03T11:15:51.019Z,555
2017-03-03T11:16:52.261Z,540
2017-03-03T11:17:53.593Z,535
2017-03-03T11:18:54.942Z,525
2017-03-03T11:19:56.185Z,525
2017-03-03T11:20:57.430Z,525
2017-03-03T11:21:58.663Z,525
2017-03-03T11:22:59.873Z,530
2017-03-03T11:24:01.121Z,530
2017-03-03T11:25:02.444Z,520
2017-03-03T11:26:03.701Z,510
2017-03-03T11:27:04.950Z,490
2017-03-03T11:28:06.197Z,485
2017-03-03T11:29:07.442Z,470
2017-03-03T11:30:08.677Z,460
2017-03-03T11:31:09.960Z,455
2017-03-03T11:32:11.197Z,455
2017-03-03T11:33:12.445Z,455
2017-03-03T11:34:13.687Z,455
2017-03-03T11:35:14.930Z,460
2017-03-03T11:36:16.172Z,470
2017-03-03T11:37:17.413Z,470
2017-03-03T11:38:18.669Z,475
2017-03-03T11:39:19.930Z,475
2017-03-03T11:40:21.159Z,475
2017-03-03T11:41:22.461Z,470
2017-03-03T11:42:23.690Z,465
2017-03-03T11:43:24.941Z,455
2017-03-03T11:44:26.187Z,445
2017-03-03T11:45:27.467Z,430
2017-03-03T11:46:28.712Z,425
2017-03-03T11:47:29.977Z,420
2017-03-03T11:48:31.214Z,415
2017-03-03T11:49:32.460Z,425
2017-03-03T11:50:33.758Z,420
2017-03-03T11:51:35.005Z,420
2017-03-03T11:52:36.238Z,420
2017-03-03T11:53:37.494Z,420
2017-03-03T11:54:38.716Z,415
2017-03-03T11:55:40.050Z,410
2017-03-03T11:56:41.294Z,405
2017-03-03T11:57:42.546Z,400
2017-03-03T11:58:43.784Z,395
2017-03-03T11:59:45.023Z,400
2017-03-03T12:00:46.260Z,410
2017-03-03T12:01:47.502Z,420
2017-03-03T12:02:48.749Z,440
2017-03-03T12:03:50.030Z,455
2017-03-03T12:04:51.251Z,460
2017-03-03T12:05:52.505Z,465
2017-03-03T12:06:53.749Z,475
2017-03-03T12:07:55.057Z,485
2017-03-03T12:08:56.386Z,510
2017-03-03T12:09:57.709Z,530
2017-03-03T12:10:58.957Z,570
2017-03-03T12:12:00.209Z,605
2017-03-03T12:13:01.452Z,635
2017-03-03T12:14:02.690Z,655
2017-03-03T12:15:03.940Z,665
2017-03-03T12:16:05.186Z,675
2017-03-03T12:17:06.459Z,670
2017-03-03T12:18:07.689Z,640
2017-03-03T12:19:08.927Z,640
2017-03-03T12:20:10.176Z,640
2017-03-03T12:21:11.417Z,620
2017-03-03T12:22:12.696Z,595
2017-03-03T12:23:14.067Z,585
2017-03-03T12:24:15.336Z,575
2017-03-03T12:25:16.573Z,570
2017-03-03T12:26:17.819Z,560
2017-03-03T12:27:19.043Z,550
2017-03-03T12:28:20.338Z,540
2017-03-03T12:29:21.576Z,540
2017-03-03T12:30:22.878Z,545
2017-03-03T12:31:24.231Z,555
2017-03-03T12:32:25.487Z,570
2017-03-03T12:33:26.707Z,575
2017-03-03T12:34:27.946Z,545
2017-03-03T12:35:29.208Z,525
2017-03-03T12:36:30.447Z,520
2017-03-03T12:37:31.775Z,505
2017-03-03T12:38:33.013Z,505
2017-03-03T12:39:34.310Z,500
2017-03-03T12:40:35.563Z,495
2017-03-03T12:41:36.816Z,485
2017-03-03T12:42:38.225Z,475
2017-03-03T12:43:39.498Z,460
2017-03-03T12:44:40.719Z,475
2017-03-03T12:45:42.118Z,480
2017-03-03T12:46:43.265Z,480
2017-03-03T12:47:44.514Z,490
2017-03-03T12:48:45.755Z,495
2017-03-03T12:49:47.001Z,485
2017-03-03T12:50:48.251Z,470
2017-03-03T12:51:49.490Z,455
2017-03-03T12:52:50.751Z,445
2017-03-03T12:53:52.037Z,430
2017-03-03T12:54:53.304Z,405
2017-03-03T12:55:54.554Z,400
2017-03-03T12:56:55.801Z,390
2017-03-03T12:57:57.063Z,365
2017-03-03T12:58:58.309Z,325
2017-03-03T12:59:59.638Z,305
2017-03-03T13:01:00.873Z,290
2017-03-03T13:02:02.222Z,300
2017-03-03T13:03:03.471Z,325
2017-03-03T13:04:04.697Z,360
2017-03-03T13:05:06.030Z,375
2017-03-03T13:06:07.237Z,360
2017-03-03T13:07:08.477Z,340
2017-03-03T13:08:09.749Z,335
2017-03-03T13:09:10.969Z,350
2017-03-03T13:10:12.328Z,355
2017-03-03T13:11:13.564Z,350
2017-03-03T13:12:14.838Z,345
2017-03-03T13:13:16.077Z,345
2017-03-03T13:14:17.311Z,345
2017-03-03T13:15:18.631Z,330
2017-03-03T13:16:19.862Z,320
2017-03-03T13:17:21.148Z,320
2017-03-03T13:18:22.430Z,330
2017-03-03T13:19:23.669Z,345
2017-03-03T13:20:24.971Z,360
2017-03-03T13:21:26.228Z,365
2017-03-03T13:22:27.465Z,370
2017-03-03T13:23:28.725Z,385
2017-03-03T13:24:30.010Z,405
2017-03-03T13:25:31.206Z,415
2017-03-03T13:26:32.455Z,415
2017-03-03T13:27:33.709Z,400
2017-03-03T13:28:34.958Z,375
2017-03-03T13:29:36.198Z,365
2017-03-03T13:30:37.442Z,345
2017-03-03T13:31:38.727Z,330
2017-03-03T13:32:39.983Z,320
2017-03-03T13:33:41.240Z,310
2017-03-03T13:34:42.534Z,295
2017-03-03T13:35:43.773Z,285
2017-03-03T13:36:45.013Z,285
2017-03-03T13:37:46.290Z,290
2017-03-03T13:38:47.614Z,285
2017-03-03T13:39:48.875Z,290
2017-03-03T13:40:50.095Z,290
2017-03-03T13:41:51.354Z,290
2017-03-03T13:42:52.608Z,285
2017-03-03T13:43:53.875Z,275
2017-03-03T13:44:55.137Z,270
2017-03-03T13:45:56.397Z,280
2017-03-03T13:46:57.639Z,295
2017-03-03T13:47:58.890Z,295
2017-03-03T13:49:00.285Z,295
2017-03-03T13:50:01.453Z,295
2017-03-03T13:51:02.703Z,295
2017-03-03T13:52:03.952Z,290
2017-03-03T13:53:05.181Z,280
2017-03-03T13:54:06.433Z,265
2017-03-03T13:55:07.681Z,260
2017-03-03T13:56:08.940Z,270
2017-03-03T13:57:10.207Z,275
2017-03-03T13:58:11.434Z,280
2017-03-03T13:59:12.684Z,290
2017-03-03T14:00:13.935Z,300
2017-03-03T14:01:15.166Z,300
2017-03-03T14:02:16.492Z,290
2017-03-03T14:03:17.791Z,285
2017-03-03T14:04:19.099Z,275
2017-03-03T14:05:20.411Z,275
2017-03-03T14:06:21.662Z,275
2017-03-03T14:07:22.917Z,270
2017-03-03T14:08:24.329Z,265
2017-03-03T14:09:25.617Z,260
2017-03-03T14:10:26.909Z,245
2017-03-03T14:11:28.147Z,245
2017-03-03T14:12:29.388Z,245
2017-03-03T14:13:30.624Z,250
2017-03-03T14:14:31.882Z,250
2017-03-03T14:15:33.107Z,245
2017-03-03T14:16:34.349Z,245
2017-03-03T14:17:35.602Z,250
2017-03-03T14:18:36.823Z,250
2017-03-03T14:19:38.060Z,245
2017-03-03T14:20:39.301Z,245
2017-03-03T14:21:40.551Z,240
2017-03-03T14:22:41.795Z,240
2017-03-03T14:23:43.079Z,240
2017-03-03T14:24:44.401Z,240
2017-03-03T14:25:45.604Z,230
2017-03-03T14:26:46.875Z,225
2017-03-03T14:27:48.160Z,215
2017-03-03T14:28:49.473Z,205